sensor_id;sensor_type;location;lat;lon;timestamp;P1;durP1;ratioP1;P2;durP2;ratioP2
11346;SDS011;5728;42.722;23.258;2023-02-28T00:36:32;18.97;;;11.87;;
11346;SDS011;5728;42.722;23.258;2023-02-28T00:38:59;16.97;;;11.07;;
11346;SDS011;5728;42.722;23.258;2023-02-28T00:41:25;14.60;;;10.03;;
11346;SDS011;5728;42.722;23.258;2023-02-28T00:43:52;14.80;;;9.87;;
11346;SDS011;5728;42.722;23.258;2023-02-28T00:46:19;18.70;;;11.40;;
11346;SDS011;5728;42.722;23.258;2023-02-28T00:48:46;15.97;;;9.43;;
11346;SDS011;5728;42.722;23.258;2023-02-28T00:51:13;16.63;;;10.53;;
11346;SDS011;5728;42.722;23.258;2023-02-28T00:53:41;18.80;;;10.77;;
11346;SDS011;5728;42.722;23.258;2023-02-28T00:56:07;16.57;;;10.13;;
11346;SDS011;5728;42.722;23.258;2023-02-28T00:58:34;18.17;;;10.87;;
11346;SDS011;5728;42.722;23.258;2023-02-28T01:01:01;18.03;;;11.27;;
11346;SDS011;5728;42.722;23.258;2023-02-28T01:03:28;16.77;;;10.93;;
11346;SDS011;5728;42.722;23.258;2023-02-28T01:05:54;20.20;;;10.93;;
11346;SDS011;5728;42.722;23.258;2023-02-28T01:08:21;20.80;;;11.77;;
11346;SDS011;5728;42.722;23.258;2023-02-28T01:10:49;20.35;;;13.55;;
11346;SDS011;5728;42.722;23.258;2023-02-28T01:13:16;18.37;;;11.97;;
11346;SDS011;5728;42.722;23.258;2023-02-28T01:15:43;19.60;;;11.73;;
11346;SDS011;5728;42.722;23.258;2023-02-28T01:18:15;20.73;;;10.40;;
11346;SDS011;5728;42.722;23.258;2023-02-28T01:20:42;22.93;;;11.67;;
11346;SDS011;5728;42.722;23.258;2023-02-28T01:23:09;20.73;;;11.03;;
11346;SDS011;5728;42.722;23.258;2023-02-28T01:25:36;17.70;;;10.80;;
11346;SDS011;5728;42.722;23.258;2023-02-28T01:28:04;18.13;;;11.23;;
11346;SDS011;5728;42.722;23.258;2023-02-28T01:30:32;16.40;;;11.33;;
11346;SDS011;5728;42.722;23.258;2023-02-28T01:32:59;16.57;;;10.87;;
11346;SDS011;5728;42.722;23.258;2023-02-28T01:35:31;15.80;;;10.93;;
11346;SDS011;5728;42.722;23.258;2023-02-28T01:37:58;17.13;;;10.50;;
11346;SDS011;5728;42.722;23.258;2023-02-28T01:40:25;16.33;;;10.63;;
11346;SDS011;5728;42.722;23.258;2023-02-28T01:42:52;18.97;;;10.87;;
11346;SDS011;5728;42.722;23.258;2023-02-28T01:45:22;17.87;;;11.13;;
11346;SDS011;5728;42.722;23.258;2023-02-28T01:47:52;16.33;;;11.70;;
11346;SDS011;5728;42.722;23.258;2023-02-28T01:50:22;16.40;;;10.50;;
11346;SDS011;5728;42.722;23.258;2023-02-28T01:52:52;17.50;;;11.17;;
11346;SDS011;5728;42.722;23.258;2023-02-28T01:55:22;15.13;;;10.53;;
11346;SDS011;5728;42.722;23.258;2023-02-28T01:57:54;15.73;;;11.07;;
11346;SDS011;5728;42.722;23.258;2023-02-28T02:00:25;12.93;;;9.13;;
11346;SDS011;5728;42.722;23.258;2023-02-28T02:02:54;18.47;;;10.17;;
11346;SDS011;5728;42.722;23.258;2023-02-28T02:05:24;17.83;;;10.60;;
11346;SDS011;5728;42.722;23.258;2023-02-28T02:07:54;18.30;;;10.13;;
11346;SDS011;5728;42.722;23.258;2023-02-28T02:10:24;18.13;;;10.20;;
11346;SDS011;5728;42.722;23.258;2023-02-28T02:13:11;16.03;;;10.90;;
11346;SDS011;5728;42.722;23.258;2023-02-28T02:15:56;16.53;;;10.90;;
11346;SDS011;5728;42.722;23.258;2023-02-28T02:18:31;17.90;;;9.80;;
11346;SDS011;5728;42.722;23.258;2023-02-28T02:27:26;16.47;;;10.53;;
11346;SDS011;5728;42.722;23.258;2023-02-28T02:35:53;20.70;;;11.90;;
11346;SDS011;5728;42.722;23.258;2023-02-28T02:38:29;20.30;;;12.33;;
11346;SDS011;5728;42.722;23.258;2023-02-28T02:41:04;22.30;;;12.23;;
11346;SDS011;5728;42.722;23.258;2023-02-28T02:43:35;21.30;;;13.00;;
11346;SDS011;5728;42.722;23.258;2023-02-28T02:46:08;27.60;;;13.57;;
11346;SDS011;5728;42.722;23.258;2023-02-28T02:48:39;27.00;;;14.27;;
11346;SDS011;5728;42.722;23.258;2023-02-28T02:51:10;25.63;;;14.83;;
11346;SDS011;5728;42.722;23.258;2023-02-28T02:53:41;26.17;;;14.53;;
11346;SDS011;5728;42.722;23.258;2023-02-28T02:56:14;24.10;;;13.97;;
11346;SDS011;5728;42.722;23.258;2023-02-28T02:58:43;25.33;;;14.90;;
11346;SDS011;5728;42.722;23.258;2023-02-28T03:01:12;25.37;;;13.17;;
11346;SDS011;5728;42.722;23.258;2023-02-28T03:03:42;21.27;;;13.43;;
11346;SDS011;5728;42.722;23.258;2023-02-28T03:06:12;23.70;;;13.00;;
11346;SDS011;5728;42.722;23.258;2023-02-28T03:08:41;23.50;;;13.13;;
11346;SDS011;5728;42.722;23.258;2023-02-28T03:11:11;22.70;;;13.00;;
11346;SDS011;5728;42.722;23.258;2023-02-28T03:13:51;21.33;;;12.37;;
11346;SDS011;5728;42.722;23.258;2023-02-28T03:16:41;26.93;;;12.60;;
11346;SDS011;5728;42.722;23.258;2023-02-28T03:19:28;23.60;;;11.90;;
11346;SDS011;5728;42.722;23.258;2023-02-28T03:22:08;29.37;;;13.20;;
11346;SDS011;5728;42.722;23.258;2023-02-28T03:24:42;30.77;;;13.20;;
11346;SDS011;5728;42.722;23.258;2023-02-28T03:27:16;29.83;;;13.70;;
11346;SDS011;5728;42.722;23.258;2023-02-28T03:29:50;27.83;;;13.53;;
11346;SDS011;5728;42.722;23.258;2023-02-28T03:32:24;26.53;;;13.80;;
11346;SDS011;5728;42.722;23.258;2023-02-28T03:34:55;27.67;;;13.43;;
11346;SDS011;5728;42.722;23.258;2023-02-28T03:37:30;30.37;;;15.20;;
11346;SDS011;5728;42.722;23.258;2023-02-28T03:40:01;103.23;;;17.83;;
11346;SDS011;5728;42.722;23.258;2023-02-28T03:42:34;29.37;;;15.03;;
11346;SDS011;5728;42.722;23.258;2023-02-28T03:45:03;28.10;;;15.20;;
11346;SDS011;5728;42.722;23.258;2023-02-28T03:47:35;24.97;;;14.47;;
11346;SDS011;5728;42.722;23.258;2023-02-28T03:50:07;26.00;;;13.67;;
11346;SDS011;5728;42.722;23.258;2023-02-28T03:52:41;28.50;;;13.00;;
11346;SDS011;5728;42.722;23.258;2023-02-28T03:55:12;28.73;;;14.40;;
11346;SDS011;5728;42.722;23.258;2023-02-28T03:57:43;29.43;;;15.37;;
11346;SDS011;5728;42.722;23.258;2023-02-28T04:00:16;28.20;;;14.60;;
11346;SDS011;5728;42.722;23.258;2023-02-28T04:02:46;28.97;;;15.70;;
11346;SDS011;5728;42.722;23.258;2023-02-28T04:05:17;26.50;;;15.23;;
11346;SDS011;5728;42.722;23.258;2023-02-28T04:07:46;28.73;;;14.33;;
11346;SDS011;5728;42.722;23.258;2023-02-28T04:10:13;24.47;;;13.83;;
11346;SDS011;5728;42.722;23.258;2023-02-28T04:12:41;25.70;;;13.80;;
11346;SDS011;5728;42.722;23.258;2023-02-28T04:15:08;24.47;;;14.03;;
11346;SDS011;5728;42.722;23.258;2023-02-28T04:17:36;25.33;;;14.27;;
11346;SDS011;5728;42.722;23.258;2023-02-28T04:20:03;26.33;;;14.40;;
11346;SDS011;5728;42.722;23.258;2023-02-28T04:22:34;24.23;;;13.73;;
11346;SDS011;5728;42.722;23.258;2023-02-28T04:25:03;28.60;;;15.83;;
11346;SDS011;5728;42.722;23.258;2023-02-28T04:27:31;29.20;;;16.07;;
11346;SDS011;5728;42.722;23.258;2023-02-28T04:29:58;28.87;;;16.57;;
11346;SDS011;5728;42.722;23.258;2023-02-28T04:32:25;33.03;;;17.43;;
11346;SDS011;5728;42.722;23.258;2023-02-28T04:34:52;28.83;;;15.37;;
11346;SDS011;5728;42.722;23.258;2023-02-28T04:37:18;24.47;;;15.20;;
11346;SDS011;5728;42.722;23.258;2023-02-28T04:39:46;27.50;;;13.90;;
11346;SDS011;5728;42.722;23.258;2023-02-28T04:42:14;23.10;;;13.87;;
11346;SDS011;5728;42.722;23.258;2023-02-28T04:44:41;25.00;;;15.10;;
11346;SDS011;5728;42.722;23.258;2023-02-28T04:47:08;25.93;;;15.20;;
11346;SDS011;5728;42.722;23.258;2023-02-28T04:49:35;30.67;;;18.07;;
11346;SDS011;5728;42.722;23.258;2023-02-28T04:52:02;33.93;;;19.17;;
11346;SDS011;5728;42.722;23.258;2023-02-28T04:54:32;28.50;;;16.50;;
11346;SDS011;5728;42.722;23.258;2023-02-28T04:57:00;26.03;;;15.70;;
11346;SDS011;5728;42.722;23.258;2023-02-28T04:59:28;26.90;;;15.00;;
11346;SDS011;5728;42.722;23.258;2023-02-28T05:01:54;21.47;;;15.00;;
11346;SDS011;5728;42.722;23.258;2023-02-28T05:04:21;23.80;;;16.20;;
11346;SDS011;5728;42.722;23.258;2023-02-28T05:06:48;25.37;;;14.87;;
11346;SDS011;5728;42.722;23.258;2023-02-28T05:09:14;23.10;;;15.07;;
11346;SDS011;5728;42.722;23.258;2023-02-28T05:11:41;28.03;;;18.77;;
11346;SDS011;5728;42.722;23.258;2023-02-28T05:14:09;25.27;;;14.07;;
11346;SDS011;5728;42.722;23.258;2023-02-28T05:16:39;24.33;;;13.37;;
11346;SDS011;5728;42.722;23.258;2023-02-28T05:19:06;21.57;;;13.50;;
11346;SDS011;5728;42.722;23.258;2023-02-28T05:21:33;19.37;;;13.07;;
11346;SDS011;5728;42.722;23.258;2023-02-28T05:24:01;23.20;;;12.47;;
11346;SDS011;5728;42.722;23.258;2023-02-28T05:26:30;24.13;;;14.17;;
11346;SDS011;5728;42.722;23.258;2023-02-28T05:28:57;22.17;;;14.10;;
11346;SDS011;5728;42.722;23.258;2023-02-28T05:31:24;25.00;;;13.80;;
11346;SDS011;5728;42.722;23.258;2023-02-28T05:33:52;22.20;;;13.47;;
11346;SDS011;5728;42.722;23.258;2023-02-28T05:36:19;27.13;;;14.63;;
11346;SDS011;5728;42.722;23.258;2023-02-28T05:38:46;24.13;;;14.07;;
11346;SDS011;5728;42.722;23.258;2023-02-28T05:41:14;19.97;;;13.43;;
11346;SDS011;5728;42.722;23.258;2023-02-28T05:43:41;21.80;;;13.17;;
11346;SDS011;5728;42.722;23.258;2023-02-28T05:46:08;19.70;;;11.97;;
11346;SDS011;5728;42.722;23.258;2023-02-28T05:48:37;29.50;;;13.83;;
11346;SDS011;5728;42.722;23.258;2023-02-28T05:51:06;26.70;;;16.07;;
11346;SDS011;5728;42.722;23.258;2023-02-28T05:53:34;28.17;;;18.63;;
11346;SDS011;5728;42.722;23.258;2023-02-28T05:56:02;103.93;;;55.87;;
11346;SDS011;5728;42.722;23.258;2023-02-28T05:58:29;69.93;;;39.30;;
11346;SDS011;5728;42.722;23.258;2023-02-28T06:00:56;39.50;;;22.10;;
11346;SDS011;5728;42.722;23.258;2023-02-28T06:03:23;30.03;;;17.37;;
11346;SDS011;5728;42.722;23.258;2023-02-28T06:05:50;29.33;;;15.63;;
11346;SDS011;5728;42.722;23.258;2023-02-28T06:08:18;33.73;;;18.07;;
11346;SDS011;5728;42.722;23.258;2023-02-28T06:10:45;27.10;;;18.50;;
11346;SDS011;5728;42.722;23.258;2023-02-28T06:13:12;36.63;;;22.80;;
11346;SDS011;5728;42.722;23.258;2023-02-28T06:15:39;36.57;;;21.53;;
11346;SDS011;5728;42.722;23.258;2023-02-28T06:18:06;34.80;;;19.57;;
11346;SDS011;5728;42.722;23.258;2023-02-28T06:20:33;28.20;;;17.90;;
11346;SDS011;5728;42.722;23.258;2023-02-28T06:23:01;31.30;;;18.30;;
11346;SDS011;5728;42.722;23.258;2023-02-28T06:25:29;35.87;;;18.40;;
11346;SDS011;5728;42.722;23.258;2023-02-28T06:27:56;32.33;;;18.73;;
11346;SDS011;5728;42.722;23.258;2023-02-28T06:30:23;44.63;;;20.20;;
11346;SDS011;5728;42.722;23.258;2023-02-28T06:32:51;36.93;;;18.67;;
11346;SDS011;5728;42.722;23.258;2023-02-28T06:35:18;42.57;;;18.83;;
11346;SDS011;5728;42.722;23.258;2023-02-28T06:37:45;39.90;;;17.80;;
11346;SDS011;5728;42.722;23.258;2023-02-28T06:40:13;40.60;;;18.50;;
11346;SDS011;5728;42.722;23.258;2023-02-28T06:42:41;42.27;;;20.93;;
11346;SDS011;5728;42.722;23.258;2023-02-28T06:45:08;35.70;;;19.37;;
11346;SDS011;5728;42.722;23.258;2023-02-28T06:47:36;35.80;;;20.67;;
11346;SDS011;5728;42.722;23.258;2023-02-28T06:50:04;40.93;;;19.50;;
11346;SDS011;5728;42.722;23.258;2023-02-28T06:52:32;36.20;;;20.03;;
11346;SDS011;5728;42.722;23.258;2023-02-28T06:55:01;42.70;;;21.77;;
11346;SDS011;5728;42.722;23.258;2023-02-28T06:57:28;40.87;;;21.20;;
11346;SDS011;5728;42.722;23.258;2023-02-28T06:59:58;42.87;;;23.40;;
11346;SDS011;5728;42.722;23.258;2023-02-28T07:02:26;37.77;;;20.90;;
11346;SDS011;5728;42.722;23.258;2023-02-28T07:04:53;37.23;;;21.10;;
11346;SDS011;5728;42.722;23.258;2023-02-28T07:07:20;38.30;;;20.63;;
11346;SDS011;5728;42.722;23.258;2023-02-28T07:09:47;42.37;;;23.00;;
11346;SDS011;5728;42.722;23.258;2023-02-28T07:12:14;43.83;;;24.47;;
11346;SDS011;5728;42.722;23.258;2023-02-28T07:14:40;45.13;;;23.47;;
11346;SDS011;5728;42.722;23.258;2023-02-28T07:17:09;51.43;;;26.10;;
11346;SDS011;5728;42.722;23.258;2023-02-28T07:19:37;48.07;;;26.37;;
11346;SDS011;5728;42.722;23.258;2023-02-28T07:22:04;46.73;;;26.90;;
11346;SDS011;5728;42.722;23.258;2023-02-28T07:24:31;47.20;;;24.70;;
11346;SDS011;5728;42.722;23.258;2023-02-28T07:26:58;51.40;;;25.83;;
11346;SDS011;5728;42.722;23.258;2023-02-28T07:29:26;44.07;;;24.77;;
11346;SDS011;5728;42.722;23.258;2023-02-28T07:31:52;46.27;;;23.37;;
11346;SDS011;5728;42.722;23.258;2023-02-28T07:34:21;42.00;;;24.13;;
11346;SDS011;5728;42.722;23.258;2023-02-28T07:36:48;40.33;;;23.13;;
11346;SDS011;5728;42.722;23.258;2023-02-28T07:39:18;39.27;;;21.33;;
11346;SDS011;5728;42.722;23.258;2023-02-28T07:41:45;46.77;;;23.50;;
11346;SDS011;5728;42.722;23.258;2023-02-28T07:44:12;49.07;;;24.73;;
11346;SDS011;5728;42.722;23.258;2023-02-28T07:46:39;48.70;;;23.47;;
11346;SDS011;5728;42.722;23.258;2023-02-28T07:49:06;48.70;;;22.43;;
11346;SDS011;5728;42.722;23.258;2023-02-28T07:51:34;41.57;;;21.60;;
11346;SDS011;5728;42.722;23.258;2023-02-28T07:54:01;48.90;;;25.67;;
11346;SDS011;5728;42.722;23.258;2023-02-28T07:56:28;44.37;;;23.50;;
11346;SDS011;5728;42.722;23.258;2023-02-28T07:58:54;42.23;;;23.07;;
11346;SDS011;5728;42.722;23.258;2023-02-28T08:01:21;45.80;;;23.20;;
11346;SDS011;5728;42.722;23.258;2023-02-28T08:03:48;46.93;;;24.50;;
11346;SDS011;5728;42.722;23.258;2023-02-28T08:06:16;46.63;;;24.10;;
11346;SDS011;5728;42.722;23.258;2023-02-28T08:08:46;44.20;;;23.03;;
11346;SDS011;5728;42.722;23.258;2023-02-28T08:11:13;41.87;;;22.57;;
11346;SDS011;5728;42.722;23.258;2023-02-28T08:13:41;38.57;;;22.37;;
11346;SDS011;5728;42.722;23.258;2023-02-28T08:16:09;40.07;;;22.67;;
11346;SDS011;5728;42.722;23.258;2023-02-28T08:18:36;48.80;;;24.00;;
11346;SDS011;5728;42.722;23.258;2023-02-28T08:21:05;54.03;;;24.33;;
11346;SDS011;5728;42.722;23.258;2023-02-28T08:23:33;43.03;;;21.53;;
11346;SDS011;5728;42.722;23.258;2023-02-28T08:26:02;35.57;;;20.53;;
11346;SDS011;5728;42.722;23.258;2023-02-28T08:28:29;34.90;;;19.67;;
11346;SDS011;5728;42.722;23.258;2023-02-28T08:30:56;39.00;;;21.10;;
11346;SDS011;5728;42.722;23.258;2023-02-28T08:33:23;36.37;;;20.67;;
11346;SDS011;5728;42.722;23.258;2023-02-28T08:35:52;41.87;;;21.77;;
11346;SDS011;5728;42.722;23.258;2023-02-28T08:38:19;36.97;;;21.20;;
11346;SDS011;5728;42.722;23.258;2023-02-28T08:40:46;33.80;;;20.70;;
11346;SDS011;5728;42.722;23.258;2023-02-28T08:43:14;43.83;;;22.10;;
11346;SDS011;5728;42.722;23.258;2023-02-28T08:45:41;35.93;;;20.80;;
11346;SDS011;5728;42.722;23.258;2023-02-28T08:48:07;39.63;;;21.37;;
11346;SDS011;5728;42.722;23.258;2023-02-28T08:50:35;40.57;;;22.00;;
11346;SDS011;5728;42.722;23.258;2023-02-28T08:53:01;35.90;;;20.20;;
11346;SDS011;5728;42.722;23.258;2023-02-28T08:55:28;35.77;;;20.30;;
11346;SDS011;5728;42.722;23.258;2023-02-28T08:57:55;36.47;;;19.43;;
11346;SDS011;5728;42.722;23.258;2023-02-28T09:00:23;37.97;;;21.07;;
11346;SDS011;5728;42.722;23.258;2023-02-28T09:02:50;39.20;;;21.50;;
11346;SDS011;5728;42.722;23.258;2023-02-28T09:05:16;48.87;;;21.53;;
11346;SDS011;5728;42.722;23.258;2023-02-28T09:07:43;39.37;;;22.50;;
11346;SDS011;5728;42.722;23.258;2023-02-28T09:10:10;41.67;;;22.47;;
11346;SDS011;5728;42.722;23.258;2023-02-28T09:12:37;39.90;;;22.03;;
11346;SDS011;5728;42.722;23.258;2023-02-28T09:15:04;43.63;;;24.50;;
11346;SDS011;5728;42.722;23.258;2023-02-28T09:17:34;40.17;;;24.23;;
11346;SDS011;5728;42.722;23.258;2023-02-28T09:20:00;36.97;;;22.37;;
11346;SDS011;5728;42.722;23.258;2023-02-28T09:22:27;41.90;;;21.93;;
11346;SDS011;5728;42.722;23.258;2023-02-28T09:24:54;45.70;;;22.20;;
11346;SDS011;5728;42.722;23.258;2023-02-28T09:27:21;40.23;;;23.37;;
11346;SDS011;5728;42.722;23.258;2023-02-28T09:29:47;39.97;;;23.00;;
11346;SDS011;5728;42.722;23.258;2023-02-28T09:32:14;40.33;;;22.47;;
11346;SDS011;5728;42.722;23.258;2023-02-28T09:34:44;41.63;;;24.00;;
11346;SDS011;5728;42.722;23.258;2023-02-28T09:37:11;47.20;;;22.20;;
11346;SDS011;5728;42.722;23.258;2023-02-28T09:39:37;39.90;;;22.33;;
11346;SDS011;5728;42.722;23.258;2023-02-28T09:42:04;39.93;;;23.87;;
11346;SDS011;5728;42.722;23.258;2023-02-28T09:44:34;49.50;;;23.93;;
11346;SDS011;5728;42.722;23.258;2023-02-28T09:47:06;41.87;;;23.07;;
11346;SDS011;5728;42.722;23.258;2023-02-28T09:49:39;46.70;;;24.40;;
11346;SDS011;5728;42.722;23.258;2023-02-28T09:52:10;42.30;;;22.53;;
11346;SDS011;5728;42.722;23.258;2023-02-28T09:54:40;46.73;;;22.30;;
11346;SDS011;5728;42.722;23.258;2023-02-28T09:57:08;41.03;;;19.73;;
11346;SDS011;5728;42.722;23.258;2023-02-28T09:59:46;39.90;;;20.97;;
11346;SDS011;5728;42.722;23.258;2023-02-28T10:02:30;33.40;;;20.73;;
11346;SDS011;5728;42.722;23.258;2023-02-28T10:05:13;36.07;;;19.27;;
11346;SDS011;5728;42.722;23.258;2023-02-28T10:07:48;34.43;;;21.30;;
11346;SDS011;5728;42.722;23.258;2023-02-28T10:10:24;36.23;;;19.73;;
11346;SDS011;5728;42.722;23.258;2023-02-28T10:12:55;36.03;;;20.77;;
11346;SDS011;5728;42.722;23.258;2023-02-28T10:15:25;31.00;;;20.03;;
11346;SDS011;5728;42.722;23.258;2023-02-28T10:17:57;42.27;;;20.67;;
11346;SDS011;5728;42.722;23.258;2023-02-28T10:20:28;38.73;;;21.07;;
11346;SDS011;5728;42.722;23.258;2023-02-28T10:23:02;30.90;;;19.83;;
11346;SDS011;5728;42.722;23.258;2023-02-28T10:25:36;36.93;;;19.50;;
11346;SDS011;5728;42.722;23.258;2023-02-28T10:28:08;34.93;;;20.03;;
11346;SDS011;5728;42.722;23.258;2023-02-28T10:30:37;34.60;;;19.73;;
11346;SDS011;5728;42.722;23.258;2023-02-28T10:33:10;35.80;;;19.97;;
11346;SDS011;5728;42.722;23.258;2023-02-28T10:35:44;37.90;;;18.87;;
11346;SDS011;5728;42.722;23.258;2023-02-28T10:38:14;36.57;;;18.37;;
11346;SDS011;5728;42.722;23.258;2023-02-28T10:40:43;29.27;;;16.97;;
11346;SDS011;5728;42.722;23.258;2023-02-28T10:43:18;29.37;;;13.43;;
11346;SDS011;5728;42.722;23.258;2023-02-28T10:45:53;22.20;;;11.97;;
11346;SDS011;5728;42.722;23.258;2023-02-28T10:48:27;20.23;;;9.37;;
11346;SDS011;5728;42.722;23.258;2023-02-28T10:50:58;17.50;;;9.37;;
11346;SDS011;5728;42.722;23.258;2023-02-28T10:53:30;35.57;;;10.73;;
11346;SDS011;5728;42.722;23.258;2023-02-28T10:56:00;23.13;;;10.13;;
11346;SDS011;5728;42.722;23.258;2023-02-28T10:58:29;25.43;;;10.03;;
11346;SDS011;5728;42.722;23.258;2023-02-28T11:00:59;30.63;;;10.23;;
11346;SDS011;5728;42.722;23.258;2023-02-28T11:03:30;20.87;;;10.23;;
11346;SDS011;5728;42.722;23.258;2023-02-28T11:05:59;17.33;;;9.23;;
11346;SDS011;5728;42.722;23.258;2023-02-28T11:08:34;31.07;;;11.93;;
11346;SDS011;5728;42.722;23.258;2023-02-28T11:11:09;21.77;;;10.37;;
11346;SDS011;5728;42.722;23.258;2023-02-28T11:13:36;23.83;;;11.30;;
11346;SDS011;5728;42.722;23.258;2023-02-28T11:16:04;17.07;;;10.90;;
11346;SDS011;5728;42.722;23.258;2023-02-28T11:18:37;22.73;;;11.60;;
11346;SDS011;5728;42.722;23.258;2023-02-28T11:21:07;21.10;;;10.70;;
11346;SDS011;5728;42.722;23.258;2023-02-28T11:23:39;17.70;;;8.40;;
11346;SDS011;5728;42.722;23.258;2023-02-28T11:26:07;20.37;;;9.83;;
11346;SDS011;5728;42.722;23.258;2023-02-28T11:28:37;20.17;;;10.67;;
11346;SDS011;5728;42.722;23.258;2023-02-28T11:31:14;24.83;;;9.70;;
11346;SDS011;5728;42.722;23.258;2023-02-28T11:33:45;27.17;;;10.30;;
11346;SDS011;5728;42.722;23.258;2023-02-28T11:36:17;21.77;;;10.57;;
11346;SDS011;5728;42.722;23.258;2023-02-28T11:38:47;21.87;;;10.27;;
11346;SDS011;5728;42.722;23.258;2023-02-28T11:41:19;23.80;;;11.50;;
11346;SDS011;5728;42.722;23.258;2023-02-28T11:44:05;20.97;;;10.97;;
11346;SDS011;5728;42.722;23.258;2023-02-28T11:46:44;19.60;;;10.17;;
11346;SDS011;5728;42.722;23.258;2023-02-28T11:49:20;26.70;;;10.50;;
11346;SDS011;5728;42.722;23.258;2023-02-28T11:51:58;23.07;;;10.87;;
11346;SDS011;5728;42.722;23.258;2023-02-28T11:54:35;29.13;;;11.43;;
11346;SDS011;5728;42.722;23.258;2023-02-28T11:57:21;19.27;;;9.87;;
11346;SDS011;5728;42.722;23.258;2023-02-28T12:00:00;17.37;;;8.53;;
11346;SDS011;5728;42.722;23.258;2023-02-28T12:02:35;16.10;;;10.13;;
11346;SDS011;5728;42.722;23.258;2023-02-28T12:05:17;19.57;;;9.43;;
11346;SDS011;5728;42.722;23.258;2023-02-28T12:07:57;23.00;;;9.60;;
11346;SDS011;5728;42.722;23.258;2023-02-28T12:10:41;17.23;;;8.20;;
11346;SDS011;5728;42.722;23.258;2023-02-28T12:13:16;15.47;;;8.77;;
11346;SDS011;5728;42.722;23.258;2023-02-28T12:18:53;22.90;;;9.90;;
11346;SDS011;5728;42.722;23.258;2023-02-28T12:21:32;20.63;;;9.57;;
11346;SDS011;5728;42.722;23.258;2023-02-28T12:24:09;21.13;;;10.67;;
11346;SDS011;5728;42.722;23.258;2023-02-28T12:26:51;23.67;;;9.07;;
11346;SDS011;5728;42.722;23.258;2023-02-28T12:29:23;16.33;;;8.57;;
11346;SDS011;5728;42.722;23.258;2023-02-28T12:31:54;17.70;;;8.57;;
11346;SDS011;5728;42.722;23.258;2023-02-28T12:34:27;26.90;;;10.37;;
11346;SDS011;5728;42.722;23.258;2023-02-28T12:36:58;30.90;;;8.00;;
11346;SDS011;5728;42.722;23.258;2023-02-28T12:39:30;20.57;;;8.77;;
11346;SDS011;5728;42.722;23.258;2023-02-28T12:42:03;29.10;;;10.07;;
11346;SDS011;5728;42.722;23.258;2023-02-28T12:44:39;18.80;;;8.70;;
11346;SDS011;5728;42.722;23.258;2023-02-28T12:47:12;14.47;;;7.90;;
11346;SDS011;5728;42.722;23.258;2023-02-28T12:49:42;26.30;;;9.77;;
11346;SDS011;5728;42.722;23.258;2023-02-28T12:52:13;22.83;;;10.03;;
11346;SDS011;5728;42.722;23.258;2023-02-28T12:54:44;18.03;;;10.20;;
11346;SDS011;5728;42.722;23.258;2023-02-28T12:57:18;22.80;;;9.97;;
11346;SDS011;5728;42.722;23.258;2023-02-28T12:59:52;18.80;;;7.87;;
11346;SDS011;5728;42.722;23.258;2023-02-28T13:02:43;20.30;;;8.60;;
11346;SDS011;5728;42.722;23.258;2023-02-28T13:05:29;25.20;;;9.07;;
11346;SDS011;5728;42.722;23.258;2023-02-28T13:08:22;25.87;;;8.93;;
11346;SDS011;5728;42.722;23.258;2023-02-28T13:11:02;17.77;;;8.17;;
11346;SDS011;5728;42.722;23.258;2023-02-28T13:13:31;18.00;;;8.47;;
11346;SDS011;5728;42.722;23.258;2023-02-28T13:15:58;21.57;;;9.30;;
11346;SDS011;5728;42.722;23.258;2023-02-28T13:18:31;20.13;;;8.93;;
11346;SDS011;5728;42.722;23.258;2023-02-28T13:21:03;17.37;;;8.27;;
11346;SDS011;5728;42.722;23.258;2023-02-28T13:23:36;27.17;;;8.57;;
11346;SDS011;5728;42.722;23.258;2023-02-28T13:26:06;25.67;;;9.53;;
11346;SDS011;5728;42.722;23.258;2023-02-28T13:38:25;24.33;;;8.80;;
11346;SDS011;5728;42.722;23.258;2023-02-28T13:44:07;27.17;;;8.97;;
11346;SDS011;5728;42.722;23.258;2023-02-28T13:46:36;21.33;;;9.63;;
11346;SDS011;5728;42.722;23.258;2023-02-28T13:49:25;21.43;;;10.27;;
11346;SDS011;5728;42.722;23.258;2023-02-28T13:51:54;13.07;;;7.47;;
11346;SDS011;5728;42.722;23.258;2023-02-28T13:54:35;23.77;;;10.20;;
11346;SDS011;5728;42.722;23.258;2023-02-28T13:57:19;23.07;;;8.47;;
11346;SDS011;5728;42.722;23.258;2023-02-28T13:59:57;18.13;;;7.93;;
11346;SDS011;5728;42.722;23.258;2023-02-28T14:02:42;24.43;;;8.40;;
11346;SDS011;5728;42.722;23.258;2023-02-28T14:05:19;19.80;;;9.20;;
11346;SDS011;5728;42.722;23.258;2023-02-28T14:07:51;12.40;;;8.03;;
11346;SDS011;5728;42.722;23.258;2023-02-28T14:10:24;26.57;;;9.70;;
11346;SDS011;5728;42.722;23.258;2023-02-28T14:16:02;14.93;;;7.90;;
11346;SDS011;5728;42.722;23.258;2023-02-28T14:18:32;13.47;;;7.13;;
11346;SDS011;5728;42.722;23.258;2023-02-28T14:21:10;19.07;;;9.03;;
11346;SDS011;5728;42.722;23.258;2023-02-28T14:26:51;15.83;;;7.63;;
11346;SDS011;5728;42.722;23.258;2023-02-28T14:29:38;16.23;;;7.63;;
11346;SDS011;5728;42.722;23.258;2023-02-28T14:32:13;22.73;;;9.03;;
11346;SDS011;5728;42.722;23.258;2023-02-28T14:34:50;21.03;;;8.43;;
11346;SDS011;5728;42.722;23.258;2023-02-28T14:37:25;15.57;;;8.63;;
11346;SDS011;5728;42.722;23.258;2023-02-28T14:39:55;17.93;;;9.23;;
11346;SDS011;5728;42.722;23.258;2023-02-28T14:42:30;14.70;;;8.67;;
11346;SDS011;5728;42.722;23.258;2023-02-28T14:44:58;16.50;;;8.53;;
11346;SDS011;5728;42.722;23.258;2023-02-28T14:47:26;15.03;;;8.53;;
11346;SDS011;5728;42.722;23.258;2023-02-28T14:49:56;18.33;;;8.77;;
11346;SDS011;5728;42.722;23.258;2023-02-28T14:52:26;19.13;;;8.20;;
11346;SDS011;5728;42.722;23.258;2023-02-28T14:54:55;17.23;;;8.80;;
11346;SDS011;5728;42.722;23.258;2023-02-28T14:57:24;20.90;;;8.47;;
11346;SDS011;5728;42.722;23.258;2023-02-28T14:59:56;15.57;;;7.87;;
11346;SDS011;5728;42.722;23.258;2023-02-28T15:02:25;19.77;;;8.50;;
11346;SDS011;5728;42.722;23.258;2023-02-28T15:04:56;16.43;;;8.37;;
11346;SDS011;5728;42.722;23.258;2023-02-28T15:07:26;13.70;;;8.87;;
11346;SDS011;5728;42.722;23.258;2023-02-28T15:10:09;19.53;;;9.97;;
11346;SDS011;5728;42.722;23.258;2023-02-28T15:12:38;25.37;;;9.40;;
11346;SDS011;5728;42.722;23.258;2023-02-28T15:15:13;19.40;;;8.70;;
11346;SDS011;5728;42.722;23.258;2023-02-28T15:17:42;22.03;;;9.40;;
11346;SDS011;5728;42.722;23.258;2023-02-28T15:20:12;26.57;;;10.50;;
11346;SDS011;5728;42.722;23.258;2023-02-28T15:22:42;25.80;;;9.77;;
11346;SDS011;5728;42.722;23.258;2023-02-28T15:25:11;16.97;;;9.50;;
11346;SDS011;5728;42.722;23.258;2023-02-28T15:27:44;13.17;;;8.57;;
11346;SDS011;5728;42.722;23.258;2023-02-28T15:30:15;21.37;;;10.27;;
11346;SDS011;5728;42.722;23.258;2023-02-28T15:32:43;19.40;;;10.37;;
11346;SDS011;5728;42.722;23.258;2023-02-28T15:35:17;17.37;;;10.27;;
11346;SDS011;5728;42.722;23.258;2023-02-28T15:37:48;18.70;;;9.37;;
11346;SDS011;5728;42.722;23.258;2023-02-28T15:40:23;17.40;;;10.57;;
11346;SDS011;5728;42.722;23.258;2023-02-28T15:43:00;19.63;;;9.93;;
11346;SDS011;5728;42.722;23.258;2023-02-28T15:45:34;16.20;;;10.13;;
11346;SDS011;5728;42.722;23.258;2023-02-28T15:48:09;21.23;;;10.77;;
11346;SDS011;5728;42.722;23.258;2023-02-28T15:50:42;16.60;;;10.07;;
11346;SDS011;5728;42.722;23.258;2023-02-28T15:53:14;18.07;;;11.20;;